createdAt,value
2018-06-09T00:00:52.339Z,70.90
2018-06-09T00:01:56.466Z,71.00
2018-06-09T00:03:00.632Z,70.80
2018-06-09T00:04:04.795Z,70.80
2018-06-09T00:05:08.909Z,70.90
2018-06-09T00:06:12.998Z,71.00
2018-06-09T00:08:21.406Z,71.00
2018-06-09T00:09:25.518Z,71.10
2018-06-09T00:10:29.690Z,71.00
2018-06-09T00:11:33.835Z,70.90
2018-06-09T00:13:41.747Z,71.20
2018-06-09T00:14:45.935Z,71.20
2018-06-09T00:15:50.082Z,71.30
2018-06-09T00:16:54.163Z,71.40
2018-06-09T00:17:58.260Z,71.30
2018-06-09T00:19:02.339Z,71.50
2018-06-09T00:20:06.453Z,71.50
2018-06-09T00:21:10.565Z,71.60
2018-06-09T00:22:14.688Z,71.50
2018-06-09T00:23:18.904Z,71.60
2018-06-09T00:24:23.000Z,72.20
2018-06-09T00:25:27.081Z,71.40
2018-06-09T00:26:31.279Z,71.70
2018-06-09T00:27:35.403Z,71.60
2018-06-09T00:28:39.554Z,71.70
2018-06-09T00:30:47.408Z,71.70
2018-06-09T00:31:51.498Z,71.60
2018-06-09T00:33:59.436Z,71.60
2018-06-09T00:35:03.611Z,71.60
2018-06-09T00:36:07.750Z,71.60
2018-06-09T00:37:11.876Z,71.60
2018-06-09T00:38:16.022Z,71.70
2018-06-09T00:39:20.242Z,71.70
2018-06-09T00:40:24.355Z,71.80
2018-06-09T00:41:28.493Z,71.80
2018-06-09T00:42:32.623Z,71.80
2018-06-09T00:43:36.712Z,71.90
2018-06-09T00:44:40.786Z,71.80
2018-06-09T00:45:44.934Z,72.60
2018-06-09T00:47:52.787Z,71.80
2018-06-09T00:48:56.861Z,71.80
2018-06-09T00:50:01.013Z,71.80
2018-06-09T00:51:05.155Z,71.80
2018-06-09T00:52:09.329Z,71.90
2018-06-09T00:53:13.525Z,71.80
2018-06-09T00:54:17.604Z,72.60
2018-06-09T00:55:21.698Z,71.80
2018-06-09T00:56:37.212Z,71.80
2018-06-09T00:58:45.042Z,72.50
2018-06-09T00:59:49.152Z,71.70
2018-06-09T01:00:53.213Z,71.60
2018-06-09T01:01:57.374Z,72.30
2018-06-09T01:03:01.441Z,71.60
2018-06-09T01:04:05.607Z,71.50
2018-06-09T01:05:15.765Z,71.70
2018-06-09T01:06:25.777Z,71.50
2018-06-09T01:07:35.880Z,71.40
2018-06-09T01:08:46.214Z,71.50
2018-06-09T01:09:50.411Z,71.40
2018-06-09T01:11:58.306Z,72.00
2018-06-09T01:14:06.165Z,72.10
2018-06-09T01:15:10.283Z,71.40
2018-06-09T01:16:14.391Z,71.20
2018-06-09T01:17:18.464Z,71.20
2018-06-09T01:18:22.572Z,71.20
2018-06-09T01:19:26.676Z,71.20
2018-06-09T01:20:30.755Z,71.50
2018-06-09T01:21:34.920Z,72.10
2018-06-09T01:22:39.133Z,71.20
2018-06-09T01:23:43.302Z,71.20
2018-06-09T01:24:47.398Z,71.40
2018-06-09T01:25:51.454Z,71.40
2018-06-09T01:26:55.609Z,71.30
2018-06-09T01:27:59.691Z,71.20
2018-06-09T01:29:03.779Z,71.40
2018-06-09T01:30:08.003Z,71.50
2018-06-09T01:31:12.109Z,71.40
2018-06-09T01:32:16.233Z,71.40
2018-06-09T01:33:20.327Z,71.40
2018-06-09T01:34:24.440Z,71.50
2018-06-09T01:35:28.601Z,71.40
2018-06-09T01:36:32.711Z,71.50
2018-06-09T01:37:36.875Z,71.50
2018-06-09T01:38:40.967Z,71.50
2018-06-09T01:39:45.144Z,71.80
2018-06-09T01:40:49.302Z,71.70
2018-06-09T01:42:57.116Z,71.90
2018-06-09T01:44:01.219Z,71.80
2018-06-09T01:45:05.483Z,71.70
2018-06-09T01:46:09.579Z,71.90
2018-06-09T01:47:13.743Z,72.00
2018-06-09T01:48:17.866Z,72.10
2018-06-09T01:49:22.016Z,71.90
2018-06-09T01:50:26.119Z,72.00
2018-06-09T01:51:30.406Z,72.00
2018-06-09T01:52:34.559Z,72.00
2018-06-09T01:53:38.734Z,72.30
2018-06-09T01:54:42.845Z,72.20
2018-06-09T01:55:46.931Z,72.30
2018-06-09T01:56:50.997Z,72.30
2018-06-09T01:57:55.086Z,72.20
2018-06-09T01:58:59.315Z,72.30
2018-06-09T02:00:03.381Z,72.20
2018-06-09T02:01:07.526Z,72.30
2018-06-09T02:02:11.598Z,72.30
2018-06-09T02:03:15.742Z,72.40
2018-06-09T02:04:19.887Z,72.40
2018-06-09T02:05:23.982Z,72.50
2018-06-09T02:06:28.082Z,72.90
2018-06-09T02:07:32.188Z,73.60
2018-06-09T02:08:36.369Z,72.70
2018-06-09T02:09:40.571Z,72.60
2018-06-09T02:10:44.647Z,72.70
2018-06-09T02:11:48.729Z,72.80
2018-06-09T02:12:52.834Z,72.80
2018-06-09T02:13:56.919Z,72.80
2018-06-09T02:15:01.069Z,72.80
2018-06-09T02:16:05.164Z,73.00
2018-06-09T02:17:09.270Z,72.90
2018-06-09T02:18:13.453Z,73.00
2018-06-09T02:19:17.585Z,73.10
2018-06-09T02:20:21.680Z,73.10
2018-06-09T02:21:25.839Z,73.10
2018-06-09T02:22:29.949Z,73.00
2018-06-09T02:23:40.965Z,73.10
2018-06-09T02:24:45.178Z,73.20
2018-06-09T02:25:49.294Z,73.00
2018-06-09T02:26:53.462Z,73.40
2018-06-09T02:27:57.667Z,73.70
2018-06-09T02:29:01.903Z,73.80
2018-06-09T02:30:05.973Z,73.90
2018-06-09T02:31:10.165Z,73.70
2018-06-09T02:32:14.255Z,73.70
2018-06-09T02:34:22.111Z,73.90
2018-06-09T02:35:26.321Z,73.70
2018-06-09T02:36:30.366Z,73.80
2018-06-09T02:37:34.489Z,73.90
2018-06-09T02:38:38.654Z,73.90
2018-06-09T02:39:42.753Z,74.00
2018-06-09T02:40:46.870Z,74.60
2018-06-09T02:41:51.064Z,74.40
2018-06-09T02:42:55.178Z,74.40
2018-06-09T02:43:59.225Z,74.50
2018-06-09T02:45:03.363Z,74.30
2018-06-09T02:46:07.490Z,74.60
2018-06-09T02:47:11.593Z,74.70
2018-06-09T02:48:15.747Z,74.70
2018-06-09T02:49:19.955Z,74.80
2018-06-09T02:50:24.140Z,74.80
2018-06-09T02:51:28.208Z,75.00
2018-06-09T02:52:32.362Z,74.80
2018-06-09T02:53:36.589Z,75.30
2018-06-09T02:54:40.794Z,75.40
2018-06-09T02:55:44.946Z,75.40
2018-06-09T02:56:49.077Z,75.30
2018-06-09T02:57:53.207Z,75.70
2018-06-09T02:58:57.406Z,75.50
2018-06-09T03:00:01.614Z,75.80
2018-06-09T03:01:05.742Z,75.70
2018-06-09T03:02:09.848Z,75.60
2018-06-09T03:03:13.945Z,75.80
2018-06-09T03:04:18.050Z,75.80
2018-06-09T03:05:22.247Z,76.30
2018-06-09T03:06:26.330Z,76.20
2018-06-09T03:07:30.484Z,76.30
2018-06-09T03:08:34.606Z,76.30
2018-06-09T03:09:38.732Z,76.50
2018-06-09T03:10:42.861Z,76.30
2018-06-09T03:11:47.081Z,77.10
2018-06-09T03:12:51.197Z,76.40
2018-06-09T03:13:55.308Z,76.50
2018-06-09T03:14:59.430Z,76.70
2018-06-09T03:16:03.598Z,76.90
2018-06-09T03:17:07.806Z,76.80
2018-06-09T03:18:11.953Z,77.20
2018-06-09T03:19:16.229Z,77.50
2018-06-09T03:20:20.355Z,77.70
2018-06-09T03:21:24.437Z,77.40
2018-06-09T03:22:28.613Z,77.70
2018-06-09T03:23:33.681Z,77.70
2018-06-09T03:24:37.808Z,77.70
2018-06-09T03:25:41.937Z,77.80
2018-06-09T03:26:46.102Z,77.80
2018-06-09T03:27:50.266Z,78.60
2018-06-09T03:28:54.497Z,77.90
2018-06-09T03:29:58.618Z,78.70
2018-06-09T03:31:02.794Z,78.00
2018-06-09T03:32:07.013Z,78.00
2018-06-09T03:33:11.177Z,78.00
2018-06-09T03:34:15.357Z,78.00
2018-06-09T03:35:19.463Z,78.00
2018-06-09T03:36:23.629Z,78.20
2018-06-09T03:37:27.730Z,78.70
2018-06-09T03:38:31.883Z,78.40
2018-06-09T03:39:35.921Z,78.30
2018-06-09T03:40:40.110Z,78.70
2018-06-09T03:41:44.215Z,78.50
2018-06-09T03:42:48.368Z,78.50
2018-06-09T03:43:52.459Z,78.50
2018-06-09T03:44:56.613Z,78.40
2018-06-09T03:46:00.703Z,78.60
2018-06-09T03:47:04.817Z,78.50
2018-06-09T03:48:08.972Z,78.50
2018-06-09T03:49:13.114Z,78.50
2018-06-09T03:50:17.278Z,78.40
2018-06-09T03:51:21.425Z,78.60
2018-06-09T03:52:25.597Z,78.60
2018-06-09T03:53:29.744Z,78.60
2018-06-09T03:54:33.844Z,78.60
2018-06-09T03:55:37.962Z,78.70
2018-06-09T03:56:42.141Z,78.70
2018-06-09T03:57:46.242Z,79.60
2018-06-09T03:58:50.348Z,78.60
2018-06-09T03:59:54.462Z,78.80
2018-06-09T04:00:58.553Z,78.60
2018-06-09T04:02:02.888Z,78.70
2018-06-09T04:03:07.049Z,78.70
2018-06-09T04:04:11.136Z,78.50
2018-06-09T04:05:15.273Z,78.70
2018-06-09T04:06:19.465Z,79.50
2018-06-09T04:07:23.558Z,78.60
2018-06-09T04:08:27.670Z,78.70
2018-06-09T04:09:31.763Z,78.50
2018-06-09T04:10:35.906Z,78.60
2018-06-09T04:11:39.995Z,78.60
2018-06-09T04:12:44.126Z,78.60
2018-06-09T04:13:48.276Z,78.60
2018-06-09T04:14:52.421Z,79.20
2018-06-09T04:15:56.532Z,78.70
2018-06-09T04:17:00.631Z,78.60
2018-06-09T04:18:04.778Z,78.50
2018-06-09T04:19:08.884Z,78.50
2018-06-09T04:21:16.772Z,78.40
2018-06-09T04:23:24.720Z,78.30
2018-06-09T04:24:28.881Z,78.20
2018-06-09T04:25:33.028Z,78.20
2018-06-09T04:26:37.207Z,78.30
2018-06-09T04:27:41.301Z,78.20
2018-06-09T04:28:45.620Z,78.10
2018-06-09T04:29:49.721Z,78.80
2018-06-09T04:30:53.814Z,78.00
2018-06-09T04:31:57.950Z,77.90
2018-06-09T04:33:02.073Z,77.90
2018-06-09T04:34:06.168Z,77.80
2018-06-09T04:35:10.381Z,77.70
2018-06-09T04:36:14.512Z,77.60
2018-06-09T04:37:18.661Z,78.30
2018-06-09T04:38:22.780Z,77.50
2018-06-09T04:39:26.984Z,77.50
2018-06-09T04:40:31.067Z,77.30
2018-06-09T04:41:35.241Z,77.20
2018-06-09T04:44:46.931Z,76.70
2018-06-09T04:45:51.085Z,77.00
2018-06-09T04:46:55.289Z,76.90
2018-06-09T04:47:59.484Z,76.90
2018-06-09T04:49:03.829Z,76.80
2018-06-09T04:50:08.008Z,76.80
2018-06-09T04:51:12.145Z,76.90
2018-06-09T04:52:16.293Z,76.80
2018-06-09T04:53:20.445Z,76.70
2018-06-09T04:54:24.561Z,76.80
2018-06-09T04:55:28.714Z,76.80
2018-06-09T04:56:32.877Z,76.80
2018-06-09T04:57:36.998Z,76.70
2018-06-09T04:58:41.217Z,76.70
2018-06-09T04:59:45.338Z,76.70
2018-06-09T05:00:49.491Z,76.60
2018-06-09T05:01:53.654Z,76.60
2018-06-09T05:02:57.906Z,76.50
2018-06-09T05:04:02.039Z,76.40
2018-06-09T05:05:06.172Z,76.50
2018-06-09T05:06:10.281Z,76.50
2018-06-09T05:07:14.417Z,76.50
2018-06-09T05:08:18.517Z,76.50
2018-06-09T05:09:22.728Z,76.40
2018-06-09T05:10:26.953Z,76.40
2018-06-09T05:11:31.087Z,76.40
2018-06-09T05:12:35.219Z,76.50
2018-06-09T05:13:39.375Z,76.30
2018-06-09T05:14:43.570Z,76.50
2018-06-09T05:16:51.493Z,76.40
2018-06-09T05:17:55.637Z,76.40
2018-06-09T05:18:59.813Z,76.40
2018-06-09T05:20:03.958Z,76.50
2018-06-09T05:21:08.115Z,76.50
2018-06-09T05:22:12.277Z,76.50
2018-06-09T05:23:16.418Z,76.60
2018-06-09T05:24:20.601Z,76.50
2018-06-09T05:25:24.674Z,76.60
2018-06-09T05:26:28.836Z,76.60
2018-06-09T05:27:32.957Z,76.50
2018-06-09T05:28:37.088Z,76.60
2018-06-09T05:29:41.176Z,76.60
2018-06-09T05:30:45.385Z,77.40
2018-06-09T05:31:49.520Z,76.80
2018-06-09T05:32:53.726Z,76.80
2018-06-09T05:33:57.885Z,76.70
2018-06-09T05:35:02.039Z,76.10
2018-06-09T05:36:06.215Z,76.70
2018-06-09T05:37:10.282Z,76.80
2018-06-09T05:38:14.387Z,76.80
2018-06-09T05:39:18.620Z,77.50
2018-06-09T05:40:22.731Z,76.70
2018-06-09T05:41:26.925Z,76.80
2018-06-09T05:42:31.083Z,76.80
2018-06-09T05:43:35.189Z,76.80
2018-06-09T05:44:39.305Z,76.70
2018-06-09T05:45:43.536Z,77.50
2018-06-09T05:46:47.684Z,76.50
2018-06-09T05:47:51.830Z,76.60
2018-06-09T05:48:55.991Z,76.50
2018-06-09T05:50:00.127Z,76.50
2018-06-09T05:51:04.276Z,76.30
2018-06-09T05:52:08.429Z,77.10
2018-06-09T05:53:12.576Z,76.20
2018-06-09T05:54:16.709Z,76.20
2018-06-09T05:55:20.853Z,76.00
2018-06-09T05:56:24.954Z,76.00
2018-06-09T05:57:29.206Z,76.00
2018-06-09T05:58:33.409Z,75.90
2018-06-09T05:59:37.553Z,75.90
2018-06-09T06:00:41.674Z,75.20
2018-06-09T06:01:45.773Z,75.80
2018-06-09T06:02:49.812Z,75.80
2018-06-09T06:03:53.990Z,75.90
2018-06-09T06:04:58.073Z,75.80
2018-06-09T06:06:02.222Z,75.80
2018-06-09T06:07:06.437Z,75.70
2018-06-09T06:08:10.848Z,75.70
2018-06-09T06:09:15.151Z,75.70
2018-06-09T06:10:19.319Z,75.70
2018-06-09T06:11:23.495Z,75.70
2018-06-09T06:12:28.084Z,75.70
2018-06-09T06:13:32.508Z,75.60
2018-06-09T06:14:36.880Z,75.60
2018-06-09T06:15:41.048Z,75.40
2018-06-09T06:16:46.104Z,75.40
2018-06-09T06:17:50.242Z,75.40
2018-06-09T06:18:54.493Z,75.40
2018-06-09T06:19:58.614Z,75.40
2018-06-09T06:21:02.809Z,75.30
2018-06-09T06:22:07.130Z,75.40
2018-06-09T06:23:11.294Z,75.40
2018-06-09T06:24:15.425Z,75.30
2018-06-09T06:25:19.544Z,75.30
2018-06-09T06:26:23.715Z,75.30
2018-06-09T06:27:27.861Z,75.30
2018-06-09T06:28:32.023Z,75.20
2018-06-09T06:29:36.155Z,75.10
2018-06-09T06:30:40.284Z,75.10
2018-06-09T06:31:44.372Z,75.10
2018-06-09T06:32:48.560Z,75.00
2018-06-09T06:33:52.705Z,75.80
2018-06-09T06:34:56.775Z,75.00
2018-06-09T06:36:00.970Z,74.90
2018-06-09T06:37:05.119Z,74.80
2018-06-09T06:38:09.243Z,74.80
2018-06-09T06:40:17.045Z,74.70
2018-06-09T06:41:21.124Z,74.60
2018-06-09T06:42:25.279Z,74.60
2018-06-09T06:43:29.432Z,74.50
2018-06-09T06:44:33.559Z,74.50
2018-06-09T06:45:37.776Z,74.40
2018-06-09T06:46:41.842Z,74.20
2018-06-09T06:47:45.946Z,74.20
2018-06-09T06:48:50.098Z,74.10
2018-06-09T06:49:54.246Z,74.00
2018-06-09T06:50:58.424Z,73.80
2018-06-09T06:52:02.576Z,73.60
2018-06-09T06:53:06.681Z,73.60
2018-06-09T06:54:10.747Z,73.40
2018-06-09T06:55:14.903Z,74.10
2018-06-09T06:56:19.062Z,73.10
2018-06-09T06:57:23.180Z,72.90
2018-06-09T06:58:27.392Z,72.90
2018-06-09T06:59:31.556Z,72.80
2018-06-09T07:00:35.758Z,73.40
2018-06-09T07:01:39.955Z,73.40
2018-06-09T07:02:44.143Z,72.50
2018-06-09T07:03:48.390Z,72.50
2018-06-09T07:04:52.508Z,72.40
2018-06-09T07:05:56.661Z,72.50
2018-06-09T07:07:00.810Z,72.50
2018-06-09T07:08:04.979Z,72.40
2018-06-09T07:09:09.148Z,72.20
2018-06-09T07:10:13.291Z,73.10
2018-06-09T07:11:17.385Z,72.20
2018-06-09T07:12:21.507Z,72.30
2018-06-09T07:13:25.676Z,72.20
2018-06-09T07:14:29.772Z,72.20
2018-06-09T07:15:33.892Z,72.30
2018-06-09T07:16:38.003Z,72.20
2018-06-09T07:17:42.106Z,72.00
2018-06-09T07:18:46.244Z,72.00
2018-06-09T07:19:50.349Z,72.00
2018-06-09T07:20:54.541Z,71.90
2018-06-09T07:22:01.667Z,71.80
2018-06-09T07:23:05.807Z,71.60
2018-06-09T07:24:09.943Z,71.60
2018-06-09T07:25:14.119Z,71.30
2018-06-09T07:26:18.276Z,71.30
2018-06-09T07:27:22.374Z,71.30
2018-06-09T07:28:26.533Z,71.10
2018-06-09T07:29:30.710Z,71.40
2018-06-09T07:30:34.845Z,71.40
2018-06-09T07:31:39.054Z,71.50
2018-06-09T07:32:43.231Z,71.40
2018-06-09T07:33:47.376Z,71.40
2018-06-09T07:34:51.561Z,71.40
2018-06-09T07:35:55.753Z,71.40
2018-06-09T07:36:59.887Z,71.40
2018-06-09T07:38:04.027Z,71.40
2018-06-09T07:39:08.418Z,71.50
2018-06-09T07:40:12.514Z,71.90
2018-06-09T07:41:16.610Z,71.20
2018-06-09T07:42:20.830Z,71.30
2018-06-09T07:43:24.925Z,71.20
2018-06-09T07:44:28.998Z,71.10
2018-06-09T07:45:33.117Z,71.10
2018-06-09T07:46:37.278Z,70.90
2018-06-09T07:47:41.406Z,70.50
2018-06-09T07:48:45.583Z,70.30
2018-06-09T07:49:49.849Z,70.10
2018-06-09T07:50:54.308Z,69.70
2018-06-09T07:52:01.216Z,70.40
2018-06-09T07:53:07.353Z,69.50
2018-06-09T07:54:14.443Z,69.30
2018-06-09T07:55:19.890Z,69.20
2018-06-09T07:56:24.095Z,69.20
2018-06-09T07:57:28.187Z,69.20
2018-06-09T07:58:32.420Z,69.20
2018-06-09T07:59:36.602Z,69.00
2018-06-09T08:00:40.721Z,69.20
2018-06-09T08:01:44.765Z,69.10
2018-06-09T08:02:48.890Z,69.10
2018-06-09T08:03:53.082Z,69.00
2018-06-09T08:04:57.327Z,68.70
2018-06-09T08:06:01.438Z,68.50
2018-06-09T08:07:05.507Z,68.20
2018-06-09T08:08:09.628Z,68.00
2018-06-09T08:09:13.790Z,67.80
2018-06-09T08:10:17.909Z,67.60
2018-06-09T08:11:22.060Z,67.40
2018-06-09T08:12:26.222Z,67.30
2018-06-09T08:13:30.409Z,67.30
2018-06-09T08:14:34.543Z,67.20
2018-06-09T08:15:38.644Z,67.30
2018-06-09T08:16:42.884Z,66.80
2018-06-09T08:17:47.013Z,66.80
2018-06-09T08:18:51.173Z,66.90
2018-06-09T08:19:55.298Z,66.80
2018-06-09T08:20:59.433Z,66.70
2018-06-09T08:22:03.539Z,66.60
2018-06-09T08:24:11.397Z,66.60
2018-06-09T08:25:15.691Z,66.50
2018-06-09T08:26:19.853Z,66.30
2018-06-09T08:27:24.093Z,66.30
2018-06-09T08:28:28.596Z,66.40
2018-06-09T08:29:33.372Z,66.40
2018-06-09T08:30:37.552Z,66.30
2018-06-09T08:31:41.669Z,66.00
2018-06-09T08:32:45.785Z,66.10
2018-06-09T08:34:54.210Z,65.50
2018-06-09T08:35:58.394Z,65.60
2018-06-09T08:37:02.975Z,65.30
2018-06-09T08:38:07.078Z,65.40
2018-06-09T08:39:11.234Z,65.60
2018-06-09T08:40:15.489Z,65.70
2018-06-09T08:41:20.389Z,65.90
2018-06-09T08:42:24.768Z,66.10
2018-06-09T08:43:29.348Z,66.10
2018-06-09T08:44:33.474Z,65.90
2018-06-09T08:45:37.827Z,65.90
2018-06-09T08:46:42.336Z,65.50
2018-06-09T08:47:46.526Z,65.60
2018-06-09T08:48:50.831Z,65.80
2018-06-09T08:49:55.811Z,65.60
2018-06-09T08:50:59.867Z,65.60
2018-06-09T08:52:03.934Z,65.50
2018-06-09T08:53:08.062Z,65.10
2018-06-09T08:54:12.185Z,64.80
2018-06-09T08:55:16.359Z,64.80
2018-06-09T08:56:20.531Z,64.70
2018-06-09T08:57:24.813Z,64.40
2018-06-09T08:58:29.035Z,64.40
2018-06-09T08:59:33.233Z,64.70
2018-06-09T09:00:37.473Z,64.70
2018-06-09T09:01:41.543Z,64.70
2018-06-09T09:02:45.674Z,64.70
2018-06-09T09:03:49.751Z,64.20
2018-06-09T09:04:54.077Z,64.20
2018-06-09T09:05:58.221Z,64.10
2018-06-09T09:07:02.613Z,63.90
2018-06-09T09:08:06.758Z,63.60
2018-06-09T09:09:10.826Z,63.20
2018-06-09T09:10:15.002Z,63.30
2018-06-09T09:11:19.427Z,63.10
2018-06-09T09:13:27.812Z,62.90
2018-06-09T09:14:32.013Z,62.90
2018-06-09T09:15:36.957Z,62.80
2018-06-09T09:16:41.062Z,62.50
2018-06-09T09:18:48.925Z,62.30
2018-06-09T09:19:53.167Z,61.80
2018-06-09T09:20:57.311Z,61.70
2018-06-09T09:22:01.416Z,61.10
2018-06-09T09:23:05.710Z,60.90
2018-06-09T09:25:14.019Z,60.80
2018-06-09T09:27:22.303Z,60.80
2018-06-09T09:29:30.227Z,60.50
2018-06-09T09:30:34.401Z,60.30
2018-06-09T09:32:42.274Z,60.00
2018-06-09T09:33:46.450Z,59.70
2018-06-09T09:34:50.635Z,59.50
2018-06-09T09:35:54.783Z,59.20
2018-06-09T09:36:59.545Z,58.90
2018-06-09T09:38:03.635Z,58.80
2018-06-09T09:39:10.007Z,58.50
2018-06-09T09:40:15.144Z,58.30
2018-06-09T09:42:23.112Z,58.10
2018-06-09T09:43:27.309Z,57.80
2018-06-09T09:44:31.455Z,57.80
2018-06-09T09:45:37.063Z,57.70
2018-06-09T09:46:41.514Z,57.60
2018-06-09T09:47:45.671Z,56.80
2018-06-09T09:48:50.976Z,56.50
2018-06-09T09:49:55.115Z,56.90
2018-06-09T09:50:59.251Z,57.10
2018-06-09T09:53:07.313Z,57.40
2018-06-09T09:54:11.456Z,57.00
2018-06-09T09:55:15.545Z,57.50
2018-06-09T09:56:19.661Z,57.60
2018-06-09T09:57:23.782Z,58.30
2018-06-09T09:59:31.648Z,57.50
2018-06-09T10:00:39.405Z,57.00
2018-06-09T10:01:43.474Z,56.60
2018-06-09T10:02:47.607Z,56.70
2018-06-09T10:03:51.743Z,56.90
2018-06-09T10:04:55.876Z,56.80
2018-06-09T10:05:59.956Z,56.90
2018-06-09T10:08:07.831Z,57.30
2018-06-09T10:09:11.996Z,57.50
2018-06-09T10:10:16.292Z,57.70
2018-06-09T10:11:20.600Z,58.00
2018-06-09T10:12:24.781Z,57.90
2018-06-09T10:13:28.921Z,58.00
2018-06-09T10:14:33.124Z,57.50
2018-06-09T10:17:44.839Z,57.40
2018-06-09T10:18:49.009Z,57.00
2018-06-09T10:19:53.149Z,56.70
2018-06-09T10:20:57.279Z,56.50
2018-06-09T10:22:01.435Z,56.20
2018-06-09T10:23:05.515Z,56.10
2018-06-09T10:24:09.651Z,56.00
2018-06-09T10:25:13.817Z,55.60
2018-06-09T10:27:21.659Z,55.30
2018-06-09T10:28:25.821Z,55.10
2018-06-09T10:29:29.942Z,55.10
2018-06-09T10:30:34.144Z,55.00
2018-06-09T10:31:38.281Z,54.60
2018-06-09T10:32:42.381Z,54.50
2018-06-09T10:33:46.581Z,54.50
2018-06-09T10:34:50.706Z,54.90
2018-06-09T10:35:54.902Z,55.00
2018-06-09T10:38:46.633Z,54.80
2018-06-09T10:41:15.805Z,55.60
2018-06-09T10:43:45.627Z,56.00
2018-06-09T10:46:14.731Z,55.70
2018-06-09T10:48:43.875Z,55.50
2018-06-09T10:53:41.895Z,55.50
2018-06-09T10:56:10.945Z,54.50
2018-06-09T10:58:40.057Z,54.00
2018-06-09T11:01:09.552Z,52.80
2018-06-09T11:03:38.652Z,52.70
2018-06-09T11:06:07.742Z,52.10
2018-06-09T11:08:37.011Z,51.50
2018-06-09T11:11:06.196Z,51.10
2018-06-09T11:13:35.439Z,51.10
2018-06-09T11:16:04.536Z,51.40
2018-06-09T11:18:33.728Z,50.20
2018-06-09T11:21:02.951Z,49.30
2018-06-09T11:26:00.895Z,48.80
2018-06-09T11:28:30.067Z,48.10
2018-06-09T11:30:59.237Z,47.80
2018-06-09T11:33:28.443Z,47.70
2018-06-09T11:35:57.639Z,47.50
2018-06-09T11:38:26.842Z,47.60
2018-06-09T11:40:55.962Z,47.50
2018-06-09T11:43:25.149Z,47.60
2018-06-09T11:45:54.319Z,47.20
2018-06-09T11:48:23.606Z,47.10
2018-06-09T11:50:52.746Z,46.70
2018-06-09T11:53:22.076Z,46.50
2018-06-09T12:10:27.240Z,44.60
2018-06-09T12:12:57.525Z,44.10
2018-06-09T12:15:26.775Z,44.30
2018-06-09T12:20:24.689Z,45.60
2018-06-09T12:22:53.815Z,45.10
2018-06-09T12:25:22.988Z,45.30
2018-06-09T12:27:52.049Z,44.90
2018-06-09T12:32:49.983Z,43.90
2018-06-09T12:35:19.059Z,43.30
2018-06-09T12:37:48.195Z,42.80
2018-06-09T12:40:17.478Z,42.70
2018-06-09T12:42:46.682Z,42.30
2018-06-09T12:45:15.778Z,41.90
2018-06-09T12:47:44.850Z,42.90
2018-06-09T12:50:13.947Z,44.20
2018-06-09T12:52:43.092Z,45.20
2018-06-09T12:55:12.167Z,45.00
2018-06-09T12:57:41.379Z,44.30
2018-06-09T13:00:10.538Z,43.40
2018-06-09T13:02:39.705Z,43.00
2018-06-09T13:05:08.857Z,42.50
2018-06-09T13:07:38.080Z,42.80
2018-06-09T13:10:07.249Z,41.30
2018-06-09T13:12:36.457Z,41.10
2018-06-09T13:15:05.607Z,40.60
2018-06-09T13:20:04.601Z,40.00
2018-06-09T13:22:33.731Z,39.50
2018-06-09T13:25:03.065Z,38.90
2018-06-09T13:27:32.209Z,38.20
2018-06-09T13:30:01.530Z,38.40
2018-06-09T13:32:30.646Z,38.70
2018-06-09T13:34:59.846Z,37.70
2018-06-09T13:37:29.057Z,38.00
2018-06-09T13:39:58.161Z,38.20
2018-06-09T13:42:27.321Z,38.60
2018-06-09T13:44:58.491Z,38.40
2018-06-09T13:47:27.688Z,38.40
2018-06-09T13:49:56.855Z,38.00
2018-06-09T13:52:26.019Z,37.10
2018-06-09T13:54:55.205Z,36.40
2018-06-09T13:57:24.330Z,36.00
2018-06-09T14:02:22.696Z,35.80
2018-06-09T14:04:51.841Z,36.10
2018-06-09T14:07:20.968Z,36.40
2018-06-09T14:09:51.089Z,36.70
2018-06-09T14:12:20.239Z,37.20
2018-06-09T14:14:49.379Z,37.70
2018-06-09T14:17:18.547Z,38.00
2018-06-09T14:22:16.356Z,37.90
2018-06-09T14:24:45.454Z,38.00
2018-06-09T14:27:14.732Z,38.40
2018-06-09T14:29:43.827Z,38.90
2018-06-09T14:32:12.971Z,39.20
2018-06-09T14:34:42.098Z,39.70
2018-06-09T14:37:11.250Z,40.30
2018-06-09T14:39:40.391Z,40.30
2018-06-09T14:42:09.529Z,40.40
2018-06-09T14:44:38.676Z,40.60
2018-06-09T14:47:07.764Z,40.50
2018-06-09T14:49:36.891Z,40.50
2018-06-09T14:52:06.012Z,40.60
2018-06-09T14:54:35.146Z,40.70
2018-06-09T14:57:04.237Z,40.20
2018-06-09T14:59:33.512Z,39.80
2018-06-09T15:02:02.764Z,39.30
2018-06-09T15:04:31.865Z,39.20
2018-06-09T15:07:01.039Z,39.70
2018-06-09T15:09:30.167Z,39.30
2018-06-09T15:11:59.391Z,39.00
2018-06-09T15:14:28.543Z,39.00
2018-06-09T15:16:57.739Z,39.00
2018-06-09T15:19:26.961Z,38.90
2018-06-09T15:21:56.065Z,38.70
2018-06-09T15:24:25.266Z,38.50
2018-06-09T15:26:54.628Z,38.30
2018-06-09T15:29:23.890Z,38.20
2018-06-09T15:31:53.058Z,38.00
2018-06-09T15:34:22.121Z,38.00
2018-06-09T15:36:51.337Z,38.20
2018-06-09T15:39:20.481Z,38.20
2018-06-09T15:41:49.633Z,38.20
2018-06-09T15:44:19.330Z,38.40
2018-06-09T15:46:48.431Z,38.50
2018-06-09T15:49:17.757Z,38.50
2018-06-09T15:51:46.959Z,38.60
2018-06-09T15:54:17.221Z,39.30
2018-06-09T15:56:46.351Z,38.80
2018-06-09T15:59:15.672Z,38.70
2018-06-09T16:01:44.776Z,38.80
2018-06-09T16:04:13.908Z,39.30
2018-06-09T16:06:43.031Z,38.90
2018-06-09T16:09:12.269Z,39.60
2018-06-09T16:10:34.414Z,40.60
2018-06-09T16:11:39.307Z,41.70
2018-06-09T16:12:43.465Z,42.10
2018-06-09T16:13:47.547Z,43.20
2018-06-09T16:15:55.585Z,44.20
2018-06-09T16:17:00.084Z,44.50
2018-06-09T16:18:04.326Z,44.60
2018-06-09T16:19:08.743Z,44.80
2018-06-09T16:20:12.944Z,45.10
2018-06-09T16:21:18.308Z,45.60
2018-06-09T16:22:22.422Z,46.60
2018-06-09T16:23:26.581Z,46.10
2018-06-09T16:24:30.669Z,47.00
2018-06-09T16:25:34.950Z,47.00
2018-06-09T16:26:39.435Z,47.20
2018-06-09T16:27:43.986Z,47.80
2018-06-09T16:28:48.497Z,48.70
2018-06-09T16:29:52.649Z,49.00
2018-06-09T16:30:57.131Z,50.00
2018-06-09T16:32:01.296Z,50.20
2018-06-09T16:33:05.766Z,51.00
2018-06-09T16:34:09.908Z,51.10
2018-06-09T16:35:15.581Z,51.50
2018-06-09T16:36:19.726Z,51.30
2018-06-09T16:37:23.958Z,52.10
2018-06-09T16:38:28.305Z,52.30
2018-06-09T16:39:32.648Z,53.00
2018-06-09T16:40:36.821Z,53.90
2018-06-09T16:41:41.250Z,53.80
2018-06-09T16:42:45.357Z,54.70
2018-06-09T16:43:51.848Z,55.40
2018-06-09T16:44:56.255Z,54.30
2018-06-09T16:46:00.364Z,54.90
2018-06-09T16:48:08.340Z,55.30
2018-06-09T16:50:16.196Z,55.50
2018-06-09T16:51:20.404Z,55.40
2018-06-09T16:52:24.533Z,55.60
2018-06-09T16:53:28.647Z,56.00
2018-06-09T16:54:32.778Z,55.60
2018-06-09T16:55:36.925Z,56.00
2018-06-09T16:56:41.039Z,56.00
2018-06-09T16:57:45.210Z,55.70
2018-06-09T16:58:49.316Z,55.70
2018-06-09T16:59:53.493Z,55.50
2018-06-09T17:02:01.413Z,55.70
2018-06-09T17:03:05.513Z,55.70
2018-06-09T17:04:09.710Z,55.80
2018-06-09T17:06:17.566Z,56.20
2018-06-09T17:07:22.385Z,56.20
2018-06-09T17:08:26.573Z,56.00
2018-06-09T17:09:30.657Z,56.20
2018-06-09T17:10:34.781Z,56.20
2018-06-09T17:11:38.972Z,56.60
2018-06-09T17:12:43.099Z,56.60
2018-06-09T17:13:47.237Z,56.90
2018-06-09T17:14:51.367Z,57.20
2018-06-09T17:15:55.625Z,57.10
2018-06-09T17:18:03.545Z,56.90
2018-06-09T17:19:07.695Z,57.00
2018-06-09T17:20:12.225Z,57.00
2018-06-09T17:21:16.407Z,57.10
2018-06-09T17:22:20.555Z,57.30
2018-06-09T17:23:24.631Z,57.60
2018-06-09T17:24:28.812Z,58.90
2018-06-09T17:25:32.900Z,58.70
2018-06-09T17:26:37.046Z,58.70
2018-06-09T17:27:41.247Z,58.70
2018-06-09T17:28:45.354Z,59.00
2018-06-09T17:29:49.502Z,59.30
2018-06-09T17:30:53.651Z,59.50
2018-06-09T17:31:57.825Z,60.10
2018-06-09T17:33:02.014Z,59.50
2018-06-09T17:34:06.296Z,59.80
2018-06-09T17:35:10.510Z,60.00
2018-06-09T17:36:14.691Z,59.80
2018-06-09T17:37:18.753Z,59.90
2018-06-09T17:38:22.817Z,59.80
2018-06-09T17:39:27.004Z,59.70
2018-06-09T17:40:31.445Z,60.00
2018-06-09T17:41:35.993Z,60.30
2018-06-09T17:42:40.269Z,60.60
2018-06-09T17:43:44.539Z,61.60
2018-06-09T17:44:48.866Z,60.90
2018-06-09T17:45:53.324Z,61.30
2018-06-09T17:46:57.483Z,61.90
2018-06-09T17:48:01.603Z,61.80
2018-06-09T17:49:05.926Z,61.70
2018-06-09T17:51:13.829Z,61.90
2018-06-09T17:53:21.794Z,61.70